createdAt,value
2018-01-06T00:00:46.394Z,6.40
2018-01-06T00:03:13.877Z,5.03
2018-01-06T00:05:41.335Z,6.90
2018-01-06T00:08:08.827Z,5.47
2018-01-06T00:10:36.283Z,8.13
2018-01-06T00:13:03.887Z,4.50
2018-01-06T00:15:31.357Z,7.33
2018-01-06T00:17:58.826Z,6.30
2018-01-06T00:20:26.293Z,4.73
2018-01-06T00:22:53.770Z,7.50
2018-01-06T00:25:21.227Z,5.17
2018-01-06T00:27:48.715Z,3.27
2018-01-06T00:30:16.164Z,6.17
2018-01-06T00:32:43.655Z,8.63
2018-01-06T00:35:11.152Z,8.60
2018-01-06T00:37:38.606Z,8.23
2018-01-06T00:40:06.082Z,5.17
2018-01-06T00:42:33.546Z,7.87
2018-01-06T00:45:01.019Z,5.07
2018-01-06T00:47:28.480Z,4.70
2018-01-06T00:49:55.959Z,8.10
2018-01-06T00:52:23.406Z,6.67
2018-01-06T00:54:50.878Z,5.67
2018-01-06T00:57:18.345Z,9.00
2018-01-06T00:59:45.840Z,10.00
2018-01-06T01:02:13.299Z,7.13
2018-01-06T01:04:40.787Z,7.20
2018-01-06T01:07:08.248Z,9.33
2018-01-06T01:09:35.747Z,6.77
2018-01-06T01:12:03.210Z,7.33
2018-01-06T01:14:30.687Z,9.20
2018-01-06T01:16:58.166Z,7.53
2018-01-06T01:19:25.611Z,6.17
2018-01-06T01:21:53.086Z,5.30
2018-01-06T01:24:20.548Z,7.80
2018-01-06T01:26:48.936Z,5.77
2018-01-06T01:29:16.395Z,8.40
2018-01-06T01:31:43.870Z,8.13
2018-01-06T01:34:11.335Z,5.57
2018-01-06T01:36:38.815Z,6.00
2018-01-06T01:39:06.280Z,9.97
2018-01-06T01:41:33.815Z,6.67
2018-01-06T01:44:01.284Z,5.63
2018-01-06T01:46:28.755Z,7.40
2018-01-06T01:48:56.226Z,14.37
2018-01-06T01:51:23.718Z,7.70
2018-01-06T01:53:51.178Z,7.93
2018-01-06T01:56:18.631Z,8.07
2018-01-06T01:58:46.109Z,6.23
2018-01-06T02:01:13.564Z,5.27
2018-01-06T02:03:41.040Z,6.17
2018-01-06T02:06:08.510Z,9.80
2018-01-06T02:08:36.007Z,7.00
2018-01-06T02:11:03.463Z,9.77
2018-01-06T02:13:30.958Z,6.83
2018-01-06T02:15:58.415Z,8.17
2018-01-06T02:18:25.885Z,7.87
2018-01-06T02:20:53.358Z,12.47
2018-01-06T02:23:20.850Z,10.00
2018-01-06T02:25:48.303Z,5.37
2018-01-06T02:28:15.799Z,6.33
2018-01-06T02:30:43.267Z,9.67
2018-01-06T02:33:10.721Z,7.80
2018-01-06T02:35:38.207Z,11.97
2018-01-06T02:38:05.663Z,8.27
2018-01-06T02:40:33.148Z,8.33
2018-01-06T02:43:00.619Z,11.43
2018-01-06T02:45:28.100Z,7.10
2018-01-06T02:47:55.563Z,10.13
2018-01-06T02:50:23.329Z,8.00
2018-01-06T02:52:50.787Z,7.63
2018-01-06T02:55:18.275Z,10.43
2018-01-06T02:57:45.741Z,8.17
2018-01-06T03:00:13.215Z,7.90
2018-01-06T03:02:40.677Z,7.53
2018-01-06T03:05:08.175Z,7.07
2018-01-06T03:07:35.666Z,5.80
2018-01-06T03:10:03.126Z,8.43
2018-01-06T03:12:31.546Z,8.07
2018-01-06T03:14:59.000Z,8.00
2018-01-06T03:17:26.493Z,10.77
2018-01-06T03:19:53.979Z,5.00
2018-01-06T03:22:21.442Z,7.83
2018-01-06T03:24:48.902Z,8.47
2018-01-06T03:27:16.379Z,8.40
2018-01-06T03:29:43.844Z,6.73
2018-01-06T03:32:11.316Z,9.03
2018-01-06T03:34:38.774Z,8.30
2018-01-06T03:37:06.273Z,13.33
2018-01-06T03:39:33.727Z,9.33
2018-01-06T03:42:01.259Z,8.50
2018-01-06T03:44:28.711Z,9.93
2018-01-06T03:46:56.195Z,7.83
2018-01-06T03:49:23.650Z,8.43
2018-01-06T03:51:51.102Z,11.50
2018-01-06T03:54:19.471Z,9.57
2018-01-06T03:56:46.961Z,10.83
2018-01-06T03:59:14.444Z,8.80
2018-01-06T04:01:41.898Z,9.47
2018-01-06T04:04:09.403Z,13.17
2018-01-06T04:06:36.888Z,9.60
2018-01-06T04:09:04.367Z,9.37
2018-01-06T04:11:31.838Z,11.80
2018-01-06T04:13:59.314Z,10.43
2018-01-06T04:16:26.770Z,7.40
2018-01-06T04:18:54.246Z,10.83
2018-01-06T04:21:21.703Z,7.07
2018-01-06T04:23:49.216Z,10.33
2018-01-06T04:26:16.680Z,10.37
2018-01-06T04:28:44.138Z,10.50
2018-01-06T04:31:11.606Z,8.67
2018-01-06T04:33:39.063Z,8.13
2018-01-06T04:36:06.527Z,8.23
2018-01-06T04:38:33.979Z,9.33
2018-01-06T04:41:01.443Z,8.33
2018-01-06T04:43:28.903Z,10.83
2018-01-06T04:45:56.387Z,6.03
2018-01-06T04:48:23.843Z,10.53
2018-01-06T04:50:51.314Z,8.87
2018-01-06T04:53:18.777Z,12.30
2018-01-06T04:55:46.259Z,7.50
2018-01-06T04:58:13.710Z,8.90
2018-01-06T05:00:41.167Z,8.43
2018-01-06T05:03:08.647Z,7.57
2018-01-06T05:05:36.108Z,10.67
2018-01-06T05:08:03.587Z,10.37
2018-01-06T05:10:31.045Z,8.00
2018-01-06T05:12:58.524Z,9.20
2018-01-06T05:15:25.975Z,6.70
2018-01-06T05:17:53.487Z,7.23
2018-01-06T05:20:20.938Z,8.33
2018-01-06T05:22:48.422Z,10.47
2018-01-06T05:25:15.879Z,9.47
2018-01-06T05:27:43.350Z,7.83
2018-01-06T05:30:10.811Z,5.70
2018-01-06T05:32:38.299Z,8.07
2018-01-06T05:35:05.754Z,7.80
2018-01-06T05:37:33.206Z,8.73
2018-01-06T05:40:00.696Z,8.07
2018-01-06T05:42:28.242Z,7.77
2018-01-06T05:44:55.788Z,9.30
2018-01-06T05:47:23.243Z,7.90
2018-01-06T05:49:50.719Z,11.43
2018-01-06T05:52:18.172Z,8.63
2018-01-06T05:54:45.644Z,7.87
2018-01-06T05:57:13.091Z,9.47
2018-01-06T05:59:40.567Z,9.20
2018-01-06T06:02:08.031Z,10.77
2018-01-06T06:04:35.511Z,10.80
2018-01-06T06:07:02.959Z,9.00
2018-01-06T06:09:30.436Z,9.27
2018-01-06T06:11:57.896Z,5.73
2018-01-06T06:14:25.360Z,12.90
2018-01-06T06:16:52.833Z,9.93
2018-01-06T06:19:20.279Z,8.43
2018-01-06T06:21:47.750Z,7.20
2018-01-06T06:24:15.208Z,8.50
2018-01-06T06:26:42.683Z,12.27
2018-01-06T06:29:10.147Z,7.77
2018-01-06T06:31:37.689Z,13.10
2018-01-06T06:34:05.122Z,8.23
2018-01-06T06:36:32.612Z,8.27
2018-01-06T06:39:00.072Z,7.63
2018-01-06T06:41:27.603Z,5.57
2018-01-06T06:43:55.062Z,6.90
2018-01-06T06:46:22.521Z,7.87
2018-01-06T06:48:49.995Z,11.53
2018-01-06T06:51:17.454Z,9.53
2018-01-06T06:53:44.927Z,7.80
2018-01-06T06:56:12.379Z,8.20
2018-01-06T06:58:39.847Z,8.50
2018-01-06T07:01:07.303Z,13.17
2018-01-06T07:03:34.787Z,10.10
2018-01-06T07:06:02.239Z,10.53
2018-01-06T07:08:29.727Z,10.80
2018-01-06T07:10:57.188Z,6.30
2018-01-06T07:13:24.680Z,10.80
2018-01-06T07:15:52.147Z,7.27
2018-01-06T07:18:19.601Z,8.20
2018-01-06T07:20:47.083Z,10.73
2018-01-06T07:23:14.544Z,12.37
2018-01-06T07:25:42.026Z,10.10
2018-01-06T07:28:09.483Z,11.93
2018-01-06T07:30:36.958Z,12.87
2018-01-06T07:33:04.424Z,13.00
2018-01-06T07:35:31.914Z,16.10
2018-01-06T07:37:59.378Z,14.97
2018-01-06T07:40:26.868Z,14.90
2018-01-06T07:42:54.333Z,14.37
2018-01-06T07:45:21.822Z,9.13
2018-01-06T07:47:49.279Z,16.57
2018-01-06T07:50:16.731Z,9.53
2018-01-06T07:52:44.219Z,10.40
2018-01-06T07:55:11.770Z,11.87
2018-01-06T07:57:39.253Z,10.33
2018-01-06T08:00:06.715Z,10.07
2018-01-06T08:02:34.195Z,9.93
2018-01-06T08:05:01.659Z,10.67
2018-01-06T08:07:29.127Z,8.97
2018-01-06T08:09:56.584Z,10.17
2018-01-06T08:12:24.067Z,7.83
2018-01-06T08:14:51.522Z,9.93
2018-01-06T08:17:19.007Z,9.38
2018-01-06T08:19:46.467Z,9.10
2018-01-06T08:22:13.915Z,9.80
2018-01-06T08:24:41.387Z,8.90
2018-01-06T08:27:08.843Z,8.43
2018-01-06T08:29:36.322Z,9.23
2018-01-06T08:32:03.790Z,8.90
2018-01-06T08:34:31.275Z,11.37
2018-01-06T08:36:58.736Z,9.40
2018-01-06T08:39:26.219Z,7.03
2018-01-06T08:41:53.688Z,10.43
2018-01-06T08:44:21.182Z,7.17
2018-01-06T08:46:48.641Z,7.60
2018-01-06T08:49:16.137Z,12.10
2018-01-06T08:51:43.586Z,9.53
2018-01-06T08:54:11.054Z,9.43
2018-01-06T08:56:38.832Z,7.73
2018-01-06T08:59:06.346Z,8.63
2018-01-06T09:01:33.809Z,10.27
2018-01-06T09:04:01.261Z,6.80
2018-01-06T09:06:28.730Z,8.63
2018-01-06T09:08:56.182Z,6.43
2018-01-06T09:11:23.659Z,5.37
2018-01-06T09:13:51.110Z,5.97
2018-01-06T09:16:18.591Z,7.17
2018-01-06T09:18:46.047Z,6.37
2018-01-06T09:21:13.763Z,5.73
2018-01-06T09:23:41.206Z,7.20
2018-01-06T09:26:08.684Z,7.03
2018-01-06T09:28:36.140Z,7.70
2018-01-06T09:31:03.804Z,6.50
2018-01-06T09:33:31.268Z,5.83
2018-01-06T09:35:58.747Z,7.53
2018-01-06T09:38:26.199Z,7.47
2018-01-06T09:40:53.679Z,9.17
2018-01-06T09:43:21.129Z,8.47
2018-01-06T09:45:48.608Z,9.23
2018-01-06T09:48:16.064Z,7.20
2018-01-06T09:50:43.551Z,7.63
2018-01-06T09:53:11.008Z,8.90
2018-01-06T09:55:38.491Z,7.10
2018-01-06T09:58:05.947Z,5.63
2018-01-06T10:00:33.427Z,5.73
2018-01-06T10:03:00.887Z,6.87
2018-01-06T10:05:28.362Z,7.30
2018-01-06T10:07:55.851Z,8.17
2018-01-06T10:10:23.372Z,7.50
2018-01-06T10:12:50.827Z,7.40
2018-01-06T10:15:18.303Z,8.13
2018-01-06T10:17:45.771Z,7.80
2018-01-06T10:20:13.270Z,8.30
2018-01-06T10:22:40.732Z,5.57
2018-01-06T10:25:08.187Z,5.93
2018-01-06T10:27:35.660Z,6.50
2018-01-06T10:30:03.127Z,7.47
2018-01-06T10:32:30.595Z,7.17
2018-01-06T10:34:58.047Z,9.43
2018-01-06T10:37:25.536Z,7.43
2018-01-06T10:39:52.992Z,8.80
2018-01-06T10:42:20.478Z,8.20
2018-01-06T10:44:47.931Z,7.83
2018-01-06T10:47:15.416Z,11.43
2018-01-06T10:49:42.890Z,6.50
2018-01-06T10:52:10.384Z,8.10
2018-01-06T10:54:37.880Z,8.50
2018-01-06T10:57:05.355Z,9.77
2018-01-06T10:59:32.808Z,9.40
2018-01-06T11:02:05.703Z,11.43
2018-01-06T11:04:33.167Z,10.53
2018-01-06T11:07:00.642Z,10.33
2018-01-06T11:09:28.114Z,8.27
2018-01-06T11:11:55.595Z,10.80
2018-01-06T11:14:23.055Z,7.20
2018-01-06T11:16:50.522Z,7.90
2018-01-06T11:19:17.996Z,9.57
2018-01-06T11:21:45.475Z,7.67
2018-01-06T11:24:12.930Z,6.17
2018-01-06T11:26:40.403Z,9.97
2018-01-06T11:29:07.864Z,7.67
2018-01-06T11:31:35.337Z,8.00
2018-01-06T11:34:02.787Z,8.97
2018-01-06T11:36:30.261Z,9.00
2018-01-06T11:38:57.723Z,9.17
2018-01-06T11:41:25.194Z,9.10
2018-01-06T11:43:52.648Z,8.30
2018-01-06T11:46:20.143Z,8.23
2018-01-06T11:48:47.595Z,7.37
2018-01-06T11:51:15.059Z,6.50
2018-01-06T11:53:42.534Z,7.00
2018-01-06T11:56:09.991Z,6.47
2018-01-06T11:58:37.476Z,9.20
2018-01-06T12:01:04.935Z,10.50
2018-01-06T12:03:32.419Z,8.50
2018-01-06T12:05:59.868Z,6.87
2018-01-06T12:08:27.339Z,8.17
2018-01-06T12:10:54.803Z,6.93
2018-01-06T12:13:22.281Z,9.03
2018-01-06T12:15:49.737Z,10.03
2018-01-06T12:18:17.205Z,9.47
2018-01-06T12:20:44.671Z,12.23
2018-01-06T12:23:12.163Z,13.00
2018-01-06T12:25:39.615Z,11.33
2018-01-06T12:28:07.087Z,16.53
2018-01-06T12:30:34.542Z,13.73
2018-01-06T12:33:02.011Z,11.07
2018-01-06T12:35:29.455Z,9.97
2018-01-06T12:37:56.932Z,13.00
2018-01-06T12:40:24.384Z,10.13
2018-01-06T12:42:51.884Z,10.20
2018-01-06T12:45:19.343Z,9.60
2018-01-06T12:47:46.823Z,16.40
2018-01-06T12:50:14.283Z,16.50
2018-01-06T12:52:41.765Z,12.63
2018-01-06T12:55:09.226Z,13.33
2018-01-06T12:57:36.696Z,11.63
2018-01-06T13:00:04.152Z,12.07
2018-01-06T13:02:31.641Z,12.87
2018-01-06T13:04:59.106Z,13.53
2018-01-06T13:07:26.590Z,13.43
2018-01-06T13:09:54.519Z,11.63
2018-01-06T13:12:21.981Z,16.40
2018-01-06T13:14:49.450Z,10.20
2018-01-06T13:17:16.906Z,12.70
2018-01-06T13:19:44.390Z,10.97
2018-01-06T13:22:11.851Z,14.37
2018-01-06T13:24:39.338Z,9.43
2018-01-06T13:27:06.831Z,12.00
2018-01-06T13:29:34.332Z,8.53
2018-01-06T13:32:01.783Z,11.00
2018-01-06T13:34:29.259Z,8.43
2018-01-06T13:36:56.711Z,10.43
2018-01-06T13:39:24.188Z,14.10
2018-01-06T13:41:51.647Z,12.67
2018-01-06T13:44:19.120Z,8.70
2018-01-06T13:46:46.591Z,12.37
2018-01-06T13:49:14.071Z,8.03
2018-01-06T13:51:41.527Z,9.27
2018-01-06T13:54:09.939Z,12.07
2018-01-06T13:56:37.400Z,10.47
2018-01-06T13:59:04.883Z,11.87
2018-01-06T14:01:32.347Z,15.33
2018-01-06T14:03:59.830Z,12.13
2018-01-06T14:06:27.291Z,12.03
2018-01-06T14:08:54.759Z,9.97
2018-01-06T14:11:22.211Z,12.00
2018-01-06T14:13:49.679Z,10.33
2018-01-06T14:16:17.131Z,13.53
2018-01-06T14:18:44.631Z,12.73
2018-01-06T14:21:12.084Z,11.47
2018-01-06T14:23:39.570Z,9.83
2018-01-06T14:26:07.034Z,10.87
2018-01-06T14:28:34.524Z,11.93
2018-01-06T14:31:01.981Z,10.57
2018-01-06T14:33:29.446Z,10.57
2018-01-06T14:35:56.938Z,14.27
2018-01-06T14:38:24.392Z,13.53
2018-01-06T14:40:51.875Z,13.40
2018-01-06T14:43:19.343Z,10.93
2018-01-06T14:45:46.835Z,14.45
2018-01-06T14:48:14.295Z,13.63
2018-01-06T14:50:41.770Z,14.40
2018-01-06T14:53:09.242Z,14.87
2018-01-06T14:55:36.727Z,11.73
2018-01-06T14:58:04.447Z,13.83
2018-01-06T15:00:31.931Z,15.17
2018-01-06T15:02:59.407Z,17.87
2018-01-06T15:05:26.886Z,13.27
2018-01-06T15:07:54.351Z,29.53
2018-01-06T15:10:21.833Z,31.07
2018-01-06T15:12:49.291Z,15.07
2018-01-06T15:15:16.776Z,16.90
2018-01-06T15:17:44.246Z,14.37
2018-01-06T15:20:11.722Z,16.33
2018-01-06T15:22:39.185Z,19.90
2018-01-06T15:25:06.707Z,18.83
2018-01-06T15:27:35.187Z,27.37
2018-01-06T15:30:02.682Z,25.17
2018-01-06T15:32:30.151Z,25.00
2018-01-06T15:34:57.650Z,24.77
2018-01-06T15:37:25.116Z,18.60
2018-01-06T15:39:52.607Z,16.23
2018-01-06T15:42:20.079Z,12.33
2018-01-06T15:44:47.564Z,14.47
2018-01-06T15:47:15.040Z,12.53
2018-01-06T15:49:42.537Z,14.13
2018-01-06T15:52:10.011Z,11.90
2018-01-06T15:54:37.475Z,11.33
2018-01-06T15:57:04.963Z,14.13
2018-01-06T15:59:32.422Z,11.27
2018-01-06T16:01:59.904Z,13.47
2018-01-06T16:04:27.366Z,11.53
2018-01-06T16:06:54.838Z,13.73
2018-01-06T16:09:22.307Z,17.40
2018-01-06T16:11:49.783Z,12.77
2018-01-06T16:14:17.239Z,17.23
2018-01-06T16:16:46.647Z,10.10
2018-01-06T16:19:14.109Z,12.27
2018-01-06T16:21:41.587Z,11.97
2018-01-06T16:24:09.047Z,14.27
2018-01-06T16:26:36.542Z,15.20
2018-01-06T16:29:04.001Z,18.57
2018-01-06T16:31:31.504Z,15.47
2018-01-06T16:33:58.982Z,16.93
2018-01-06T16:36:26.469Z,15.47
2018-01-06T16:38:53.933Z,14.50
2018-01-06T16:41:21.410Z,14.00
2018-01-06T16:43:48.882Z,17.57
2018-01-06T16:46:17.378Z,15.67
2018-01-06T16:48:44.858Z,13.60
2018-01-06T16:51:12.351Z,17.57
2018-01-06T16:53:39.829Z,15.90
2018-01-06T16:56:07.325Z,14.27
2018-01-06T16:58:34.795Z,12.83
2018-01-06T17:01:02.284Z,24.50
2018-01-06T17:03:29.758Z,21.97
2018-01-06T17:05:57.244Z,20.67
2018-01-06T17:08:24.707Z,22.57
2018-01-06T17:10:52.203Z,20.90
2018-01-06T17:13:19.701Z,20.70
2018-01-06T17:15:47.168Z,15.20
2018-01-06T17:18:14.656Z,16.47
2018-01-06T17:20:42.135Z,19.80
2018-01-06T17:23:09.615Z,19.40
2018-01-06T17:25:37.084Z,22.63
2018-01-06T17:28:04.566Z,21.90
2018-01-06T17:30:32.032Z,20.87
2018-01-06T17:32:59.511Z,21.53
2018-01-06T17:35:26.975Z,26.13
2018-01-06T17:37:54.455Z,26.73
2018-01-06T17:40:21.939Z,30.50
2018-01-06T17:42:49.430Z,26.77
2018-01-06T17:45:16.899Z,27.30
2018-01-06T17:47:44.427Z,22.50
2018-01-06T17:50:11.891Z,22.93
2018-01-06T17:52:40.316Z,27.63
2018-01-06T17:55:07.801Z,28.23
2018-01-06T17:57:35.295Z,22.43
2018-01-06T18:00:02.755Z,21.63
2018-01-06T18:02:30.252Z,39.60
2018-01-06T18:04:57.720Z,35.77
2018-01-06T18:07:25.200Z,26.07
2018-01-06T18:09:53.639Z,23.97
2018-01-06T18:12:21.134Z,23.30
2018-01-06T18:14:48.601Z,22.97
2018-01-06T18:17:16.706Z,19.80
2018-01-06T18:19:44.165Z,18.33
2018-01-06T18:22:11.650Z,19.17
2018-01-06T18:24:39.120Z,18.00
2018-01-06T18:27:06.606Z,20.60
2018-01-06T18:29:34.098Z,21.17
2018-01-06T18:32:01.615Z,18.27
2018-01-06T18:34:30.034Z,23.57
2018-01-06T18:36:57.519Z,22.13
2018-01-06T18:39:25.000Z,23.37
2018-01-06T18:41:52.471Z,22.63
2018-01-06T18:44:19.954Z,23.93
2018-01-06T18:46:47.419Z,23.60
2018-01-06T18:49:14.901Z,19.90
2018-01-06T18:51:42.364Z,19.53
2018-01-06T18:54:09.842Z,19.47
2018-01-06T18:56:37.312Z,19.67
2018-01-06T18:59:04.795Z,25.87
2018-01-06T19:01:32.251Z,23.70
2018-01-06T19:03:59.731Z,25.80
2018-01-06T19:06:27.187Z,24.07
2018-01-06T19:08:54.710Z,23.40
2018-01-06T19:11:22.168Z,22.20
2018-01-06T19:13:49.666Z,29.57
2018-01-06T19:16:17.187Z,22.63
2018-01-06T19:18:44.663Z,23.50
2018-01-06T19:21:12.136Z,22.83
2018-01-06T19:23:39.610Z,24.97
2018-01-06T19:26:07.076Z,25.03
2018-01-06T19:28:34.560Z,18.13
2018-01-06T19:31:02.031Z,17.90
2018-01-06T19:33:29.506Z,21.53
2018-01-06T19:35:56.976Z,21.63
2018-01-06T19:38:24.452Z,19.63
2018-01-06T19:40:51.906Z,25.83
2018-01-06T19:43:19.390Z,26.60
2018-01-06T19:45:46.846Z,26.27
2018-01-06T19:48:14.324Z,21.97
2018-01-06T19:50:41.786Z,26.97
2018-01-06T19:53:09.271Z,29.70
2018-01-06T19:55:36.743Z,21.83
2018-01-06T19:58:05.230Z,19.87
2018-01-06T20:00:32.687Z,18.80
2018-01-06T20:03:00.142Z,24.43
2018-01-06T20:05:27.627Z,23.57
2018-01-06T20:07:55.092Z,23.50
2018-01-06T20:10:22.578Z,24.43
2018-01-06T20:12:50.044Z,25.27
2018-01-06T20:15:17.535Z,28.70
2018-01-06T20:17:45.004Z,20.77
2018-01-06T20:20:12.488Z,22.97
2018-01-06T20:22:39.954Z,17.80
2018-01-06T20:25:07.443Z,18.33
2018-01-06T20:27:34.928Z,20.10
2018-01-06T20:30:02.451Z,18.87
2018-01-06T20:32:29.917Z,16.83
2018-01-06T20:34:57.399Z,16.43
2018-01-06T20:37:24.867Z,18.03
2018-01-06T20:39:52.355Z,21.87
2018-01-06T20:42:19.831Z,20.90
2018-01-06T20:44:47.952Z,21.53
2018-01-06T20:47:16.427Z,20.07
2018-01-06T20:49:43.935Z,16.77
2018-01-06T20:52:11.404Z,18.83
2018-01-06T20:54:42.883Z,14.37
2018-01-06T20:57:10.343Z,13.33
2018-01-06T20:59:37.836Z,18.33
2018-01-06T21:02:05.304Z,15.03
2018-01-06T21:04:32.797Z,16.93
2018-01-06T21:07:00.275Z,17.87
2018-01-06T21:09:27.771Z,18.03
2018-01-06T21:11:55.231Z,18.83
2018-01-06T21:14:22.727Z,17.50
2018-01-06T21:16:50.192Z,22.57
2018-01-06T21:19:17.678Z,19.40
2018-01-06T21:21:45.159Z,16.97
2018-01-06T21:24:12.645Z,18.40
2018-01-06T21:26:40.132Z,18.50
2018-01-06T21:29:07.607Z,17.80
2018-01-06T21:31:35.088Z,17.30
2018-01-06T21:34:02.556Z,17.90
2018-01-06T21:36:30.036Z,14.50
2018-01-06T21:38:57.498Z,17.70
2018-01-06T21:41:24.991Z,16.60
2018-01-06T21:43:52.451Z,17.27
2018-01-06T21:46:19.949Z,17.77
2018-01-06T21:48:47.413Z,14.97
2018-01-06T21:51:14.894Z,18.63
2018-01-06T21:53:42.357Z,15.17
2018-01-06T21:56:09.840Z,17.63
2018-01-06T21:58:37.295Z,15.23
2018-01-06T22:01:04.782Z,17.00
2018-01-06T22:03:32.238Z,17.57
2018-01-06T22:05:59.727Z,23.07
2018-01-06T22:08:27.208Z,16.57
2018-01-06T22:10:54.676Z,20.20
2018-01-06T22:13:22.173Z,20.87
2018-01-06T22:15:49.652Z,20.47
2018-01-06T22:18:17.146Z,18.67
2018-01-06T22:20:44.611Z,20.63
2018-01-06T22:23:12.092Z,18.27
2018-01-06T22:25:39.568Z,17.83
2018-01-06T22:28:07.073Z,23.50
2018-01-06T22:30:34.541Z,17.23
2018-01-06T22:33:02.044Z,19.33
2018-01-06T22:35:29.517Z,23.67
2018-01-06T22:37:57.005Z,19.03
2018-01-06T22:40:24.491Z,21.90
2018-01-06T22:42:51.962Z,20.93
2018-01-06T22:45:19.471Z,18.67
2018-01-06T22:47:46.948Z,22.77
2018-01-06T22:50:14.439Z,18.53
2018-01-06T22:52:41.896Z,18.13
2018-01-06T22:55:09.391Z,22.33
2018-01-06T22:57:36.857Z,17.40
2018-01-06T23:00:04.340Z,15.90
2018-01-06T23:02:31.817Z,18.93
2018-01-06T23:04:59.304Z,15.97
2018-01-06T23:07:26.781Z,20.27
2018-01-06T23:09:54.242Z,18.43
2018-01-06T23:12:21.726Z,21.73
2018-01-06T23:14:49.194Z,20.33
2018-01-06T23:17:16.683Z,19.50
2018-01-06T23:19:44.159Z,18.87
2018-01-06T23:22:11.652Z,19.17
2018-01-06T23:24:39.120Z,21.30
2018-01-06T23:27:06.606Z,21.37
2018-01-06T23:29:34.074Z,20.13
2018-01-06T23:32:01.567Z,21.90
2018-01-06T23:34:29.036Z,19.80
2018-01-06T23:36:56.530Z,23.40
2018-01-06T23:39:23.997Z,18.60
2018-01-06T23:41:51.472Z,18.20
2018-01-06T23:44:18.962Z,19.73
2018-01-06T23:46:46.443Z,20.40
2018-01-06T23:49:13.931Z,18.90
2018-01-06T23:51:41.398Z,23.70
2018-01-06T23:54:08.882Z,18.07
2018-01-06T23:56:36.349Z,19.53
2018-01-06T23:59:03.839Z,21.20
